createdAt,value
2023-05-04T00:00:08.257Z,53.55
2023-05-04T00:02:35.042Z,52.95
2023-05-04T00:05:01.790Z,53.54
2023-05-04T00:07:28.366Z,53.27
2023-05-04T00:09:54.914Z,53.47
2023-05-04T00:12:21.448Z,53.71
2023-05-04T00:14:47.964Z,52.60
2023-05-04T00:17:14.565Z,53.31
2023-05-04T00:19:42.343Z,53.47
2023-05-04T00:22:09.168Z,53.43
2023-05-04T00:24:35.991Z,53.26
2023-05-04T00:27:02.490Z,53.35
2023-05-04T00:29:29.664Z,53.53
2023-05-04T00:31:56.649Z,53.26
2023-05-04T00:34:23.662Z,53.03
2023-05-04T00:36:50.230Z,53.26
2023-05-04T00:39:16.795Z,53.86
2023-05-04T00:41:44.511Z,53.10
2023-05-04T00:44:11.237Z,53.34
2023-05-04T00:46:37.953Z,53.33
2023-05-04T00:49:04.538Z,53.42
2023-05-04T00:51:31.213Z,53.56
2023-05-04T00:53:58.110Z,53.45
2023-05-04T00:56:24.903Z,53.52
2023-05-04T00:58:54.695Z,53.61
2023-05-04T01:01:22.300Z,53.49
2023-05-04T01:03:50.131Z,53.50
2023-05-04T01:06:23.271Z,53.59
2023-05-04T01:09:01.588Z,53.52
2023-05-04T01:11:37.189Z,53.69
2023-05-04T01:14:03.729Z,53.50
2023-05-04T01:16:30.266Z,53.19
2023-05-04T01:18:56.871Z,53.33
2023-05-04T01:21:23.415Z,53.52
2023-05-04T01:23:50.588Z,53.38
2023-05-04T01:26:24.816Z,53.45
2023-05-04T01:29:00.624Z,53.53
2023-05-04T01:31:27.296Z,53.60
2023-05-04T01:33:54.235Z,53.53
2023-05-04T01:36:21.230Z,53.40
2023-05-04T01:38:48.910Z,53.55
2023-05-04T01:41:15.432Z,53.76
2023-05-04T01:43:42.504Z,53.36
2023-05-04T01:46:09.058Z,53.21
2023-05-04T01:48:35.661Z,53.48
2023-05-04T01:51:02.223Z,53.36
2023-05-04T01:53:28.706Z,53.42
2023-05-04T01:55:55.285Z,52.97
2023-05-04T01:58:21.811Z,53.29
2023-05-04T02:00:48.336Z,53.39
2023-05-04T02:03:14.943Z,53.55
2023-05-04T02:05:41.663Z,53.15
2023-05-04T02:08:08.227Z,53.65
2023-05-04T02:10:34.932Z,53.24
2023-05-04T02:13:01.513Z,53.34
2023-05-04T02:15:28.180Z,53.07
2023-05-04T02:17:55.278Z,53.34
2023-05-04T02:20:21.818Z,52.92
2023-05-04T02:22:48.361Z,53.20
2023-05-04T02:25:14.951Z,53.82
2023-05-04T02:27:41.466Z,53.18
2023-05-04T02:30:09.221Z,53.42
2023-05-04T02:32:36.472Z,52.99
2023-05-04T02:35:03.145Z,53.17
2023-05-04T02:37:29.692Z,52.77
2023-05-04T02:39:56.235Z,53.44
2023-05-04T02:42:22.960Z,53.28
2023-05-04T02:44:49.515Z,54.06
2023-05-04T02:47:15.995Z,53.34
2023-05-04T02:49:42.562Z,53.43
2023-05-04T02:52:09.133Z,53.53
2023-05-04T02:54:35.715Z,53.61
2023-05-04T02:57:02.272Z,53.75
2023-05-04T02:59:28.775Z,53.19
2023-05-04T03:01:55.621Z,53.29
2023-05-04T03:04:22.185Z,53.73
2023-05-04T03:06:48.722Z,53.48
2023-05-04T03:09:15.240Z,53.22
2023-05-04T03:11:41.796Z,53.55
2023-05-04T03:14:08.333Z,53.49
2023-05-04T03:16:35.030Z,53.40
2023-05-04T03:19:01.685Z,53.28
2023-05-04T03:21:28.319Z,53.07
2023-05-04T03:23:54.851Z,53.40
2023-05-04T03:26:21.553Z,53.83
2023-05-04T03:28:48.121Z,53.37
2023-05-04T03:31:14.744Z,53.57
2023-05-04T03:33:41.549Z,53.43
2023-05-04T03:36:09.237Z,53.47
2023-05-04T03:38:35.755Z,53.16
2023-05-04T03:41:02.535Z,53.42
2023-05-04T03:43:29.038Z,53.49
2023-05-04T03:45:55.629Z,53.58
2023-05-04T03:48:22.139Z,54.00
2023-05-04T03:50:48.658Z,52.89
2023-05-04T03:53:15.262Z,53.65
2023-05-04T03:55:41.877Z,53.64
2023-05-04T03:58:08.400Z,53.29
2023-05-04T04:00:35.151Z,53.51
2023-05-04T04:03:02.152Z,53.67
2023-05-04T04:05:28.955Z,53.31
2023-05-04T04:07:55.481Z,53.14
2023-05-04T04:10:22.713Z,53.51
2023-05-04T04:12:49.882Z,53.71
2023-05-04T04:15:16.522Z,53.46
2023-05-04T04:17:43.105Z,54.03
2023-05-04T04:20:10.209Z,53.40
2023-05-04T04:22:36.789Z,53.52
2023-05-04T04:25:03.436Z,53.58
2023-05-04T04:27:29.974Z,53.03
2023-05-04T04:29:56.955Z,53.48
2023-05-04T04:32:23.502Z,53.29
2023-05-04T04:34:50.030Z,53.73
2023-05-04T04:37:16.612Z,53.50
2023-05-04T04:39:43.190Z,53.58
2023-05-04T04:42:09.759Z,53.07
2023-05-04T04:44:36.504Z,53.20
2023-05-04T04:47:03.150Z,52.71
2023-05-04T04:49:29.806Z,52.93
2023-05-04T04:51:56.836Z,53.07
2023-05-04T04:54:23.440Z,53.10
2023-05-04T04:56:49.965Z,52.90
2023-05-04T04:59:17.350Z,53.12
2023-05-04T05:01:43.923Z,53.17
2023-05-04T05:04:10.492Z,52.64
2023-05-04T05:06:37.074Z,53.46
2023-05-04T05:09:03.682Z,53.07
2023-05-04T05:11:30.217Z,52.73
2023-05-04T05:13:56.777Z,52.87
2023-05-04T05:16:23.782Z,52.85
2023-05-04T05:18:50.345Z,53.49
2023-05-04T05:21:16.915Z,53.37
2023-05-04T05:23:43.454Z,53.38
2023-05-04T05:26:09.983Z,53.14
2023-05-04T05:28:37.202Z,53.15
2023-05-04T05:31:03.922Z,53.38
2023-05-04T05:33:30.448Z,53.23
2023-05-04T05:35:56.970Z,52.79
2023-05-04T05:38:23.605Z,52.16
2023-05-04T05:40:50.165Z,51.44
2023-05-04T05:43:16.674Z,51.22
2023-05-04T05:45:43.227Z,50.70
2023-05-04T05:48:09.837Z,50.24
2023-05-04T05:50:36.333Z,49.81
2023-05-04T05:53:02.866Z,49.19
2023-05-04T05:55:29.419Z,48.88
2023-05-04T05:57:55.990Z,49.19
2023-05-04T06:00:22.529Z,48.99
2023-05-04T06:02:49.249Z,49.34
2023-05-04T06:05:15.879Z,49.05
2023-05-04T06:07:42.537Z,49.47
2023-05-04T06:10:09.560Z,49.55
2023-05-04T06:12:36.335Z,50.25
2023-05-04T06:15:02.949Z,50.54
2023-05-04T06:17:29.548Z,50.42
2023-05-04T06:19:56.394Z,50.26
2023-05-04T06:22:22.966Z,49.28
2023-05-04T06:24:49.765Z,48.06
2023-05-04T06:27:16.478Z,48.25
2023-05-04T06:29:43.013Z,48.36
2023-05-04T06:32:12.798Z,49.16
2023-05-04T06:34:39.447Z,49.43
2023-05-04T06:37:06.004Z,49.53
2023-05-04T06:39:32.942Z,49.78
2023-05-04T06:41:59.701Z,50.10
2023-05-04T06:44:26.301Z,50.07
2023-05-04T06:46:53.864Z,50.78
2023-05-04T06:49:20.479Z,50.55
2023-05-04T06:51:46.970Z,50.32
2023-05-04T06:54:13.547Z,51.04
2023-05-04T06:56:40.444Z,50.68
2023-05-04T06:59:08.161Z,51.08
2023-05-04T07:01:34.768Z,51.00
2023-05-04T07:04:01.567Z,51.04
2023-05-04T07:06:29.461Z,51.12
2023-05-04T07:08:56.414Z,51.63
2023-05-04T07:11:23.502Z,51.57
2023-05-04T07:13:50.418Z,52.01
2023-05-04T07:16:16.995Z,51.88
2023-05-04T07:18:43.559Z,51.53
2023-05-04T07:21:27.033Z,51.85
2023-05-04T07:23:55.463Z,52.15
2023-05-04T07:26:22.726Z,51.94
2023-05-04T07:28:49.257Z,51.90
2023-05-04T07:31:15.986Z,52.07
2023-05-04T07:33:42.648Z,51.97
2023-05-04T07:36:09.291Z,51.49
2023-05-04T07:38:36.265Z,51.14
2023-05-04T07:41:02.974Z,50.96
2023-05-04T07:43:29.517Z,51.38
2023-05-04T07:45:56.052Z,50.49
2023-05-04T07:48:24.614Z,50.35
2023-05-04T07:50:52.761Z,50.81
2023-05-04T07:53:20.761Z,50.69
2023-05-04T07:55:47.930Z,50.67
2023-05-04T07:58:15.566Z,50.97
2023-05-04T08:00:42.236Z,50.81
2023-05-04T08:03:08.758Z,50.63
2023-05-04T08:05:35.357Z,51.36
2023-05-04T08:08:01.905Z,51.43
2023-05-04T08:10:29.169Z,51.21
2023-05-04T08:12:55.730Z,51.37
2023-05-04T08:15:22.305Z,51.69
2023-05-04T08:17:48.953Z,51.35
2023-05-04T08:20:16.712Z,51.78
2023-05-04T08:22:43.296Z,51.68
2023-05-04T08:25:10.051Z,51.82
2023-05-04T08:27:36.636Z,51.86
2023-05-04T08:30:03.453Z,51.87
2023-05-04T08:32:31.843Z,51.94
2023-05-04T08:34:59.706Z,51.77
2023-05-04T08:37:26.454Z,51.95
2023-05-04T08:39:53.126Z,52.06
2023-05-04T08:42:32.767Z,51.92
2023-05-04T08:44:59.446Z,52.18
2023-05-04T08:47:26.572Z,52.05
2023-05-04T08:49:54.187Z,52.38
2023-05-04T08:52:22.565Z,52.25
2023-05-04T08:54:49.076Z,52.36
2023-05-04T08:57:15.742Z,52.19
2023-05-04T08:59:42.701Z,52.84
2023-05-04T09:02:09.555Z,52.45
2023-05-04T09:04:36.249Z,52.48
2023-05-04T09:07:03.412Z,52.38
2023-05-04T09:09:31.692Z,52.40
2023-05-04T09:11:59.060Z,52.46
2023-05-04T09:14:32.421Z,52.48
2023-05-04T09:16:59.082Z,52.90
2023-05-04T09:19:33.185Z,52.93
2023-05-04T09:22:01.087Z,52.73
2023-05-04T09:24:28.480Z,52.75
2023-05-04T09:26:54.988Z,52.59
2023-05-04T09:29:23.920Z,52.65
2023-05-04T09:31:51.131Z,52.79
2023-05-04T09:34:20.259Z,52.88
2023-05-04T09:36:58.664Z,52.71
2023-05-04T09:39:25.436Z,52.51
2023-05-04T09:41:51.973Z,52.92
2023-05-04T09:44:19.602Z,52.79
2023-05-04T09:46:58.873Z,52.78
2023-05-04T09:49:35.234Z,52.80
2023-05-04T09:52:02.858Z,52.92
2023-05-04T09:54:32.452Z,53.11
2023-05-04T09:57:04.995Z,52.98
2023-05-04T09:59:34.241Z,52.94
2023-05-04T10:02:10.584Z,52.94
2023-05-04T10:04:45.100Z,52.67
2023-05-04T10:07:11.613Z,52.78
2023-05-04T10:09:38.162Z,53.08
2023-05-04T10:12:05.402Z,52.90
2023-05-04T10:14:35.063Z,53.05
2023-05-04T10:17:13.900Z,52.94
2023-05-04T10:19:58.613Z,53.02
2023-05-04T10:22:37.123Z,53.10
2023-05-04T10:25:07.374Z,52.97
2023-05-04T10:27:54.481Z,53.23
2023-05-04T10:30:21.217Z,52.75
2023-05-04T10:32:55.207Z,53.21
2023-05-04T10:35:21.923Z,53.06
2023-05-04T10:37:54.484Z,53.22
2023-05-04T10:40:41.968Z,53.11
2023-05-04T10:43:08.647Z,53.05
2023-05-04T10:45:38.750Z,53.13
2023-05-04T10:48:06.122Z,53.24
2023-05-04T10:50:43.627Z,53.24
2023-05-04T10:53:10.277Z,53.74
2023-05-04T10:55:41.637Z,53.12
2023-05-04T10:58:08.489Z,53.32
2023-05-04T11:00:38.263Z,53.38
2023-05-04T11:03:05.660Z,53.34
2023-05-04T11:05:45.594Z,53.15
2023-05-04T11:08:19.451Z,53.29
2023-05-04T11:10:47.291Z,53.34
2023-05-04T11:13:14.134Z,53.33
2023-05-04T11:15:47.544Z,53.17
2023-05-04T11:18:14.477Z,53.24
2023-05-04T11:20:42.468Z,52.92
2023-05-04T11:23:10.352Z,53.41
2023-05-04T11:25:37.637Z,53.25
2023-05-04T11:28:04.455Z,53.39
2023-05-04T11:30:33.249Z,53.49
2023-05-04T11:33:00.572Z,53.02
2023-05-04T11:35:27.302Z,53.24
2023-05-04T11:37:54.418Z,53.53
2023-05-04T11:40:24.620Z,53.33
2023-05-04T11:42:52.417Z,53.54
2023-05-04T11:45:19.658Z,53.22
2023-05-04T11:47:46.530Z,53.34
2023-05-04T11:50:14.122Z,53.42
2023-05-04T11:52:41.542Z,53.50
2023-05-04T11:55:12.678Z,53.37
2023-05-04T11:57:39.765Z,52.17
2023-05-04T12:00:09.748Z,52.30
2023-05-04T12:02:36.466Z,52.39
2023-05-04T12:05:03.406Z,52.42
2023-05-04T12:07:30.073Z,52.48
2023-05-04T12:09:56.878Z,53.14
2023-05-04T12:12:23.590Z,52.64
2023-05-04T12:14:53.616Z,52.89
2023-05-04T12:17:20.620Z,52.80
2023-05-04T12:19:54.729Z,52.61
2023-05-04T12:22:32.878Z,52.84
2023-05-04T12:24:59.840Z,52.68
2023-05-04T12:27:26.666Z,52.79
2023-05-04T12:29:53.258Z,52.55
2023-05-04T12:32:19.819Z,52.44
